EDLV/NRN METAR and TAF weather

Enter ICAO airport designator
Station Type Date Time Source
EDLV METAR 2022/12/04 11:50 UTC NOAA

EDLV 041150Z 07004KT 010V130 9999 OVC013 02/M01 Q1017


Station Type Date Time Source
EDLV Decoded METAR 2022/12/04 11:50 UTC NOAA

Niederrhein, Germany (EDLV) 51-36-09N 006-08-32E
Dec 04, 2022 - 06:50 AM EST / 2022.12.04 1150 UTC
Wind: from the ENE (070 degrees) at 5 MPH (4 KT) (direction variable):0
Visibility: greater than 7 mile(s):0
Sky conditions: overcast
Temperature: 35 F (2 C)
Windchill: 30 F (-1 C):1
Dew Point: 30 F (-1 C)
Relative Humidity: 80%
Pressure (altimeter): 30.03 in. Hg (1017 hPa)
ob: EDLV 041150Z 07004KT 010V130 9999 OVC013 02/M01 Q1017
cycle: 12

Station Type Date Time Source
EDLV TAF 2022/12/04 12:27 UTC NOAA

TAF EDLV 041100Z 0412/0512 05005KT 9999 OVC012
BECMG 0423/0502 BKN007 PROB40
TEMPO 0502/0512 2500 RADZ BR BKN004

Example: see airport list